Time;durP1;ratioP1;P1;durP2;ratioP2;P2;SDS_P1;SDS_P2;PMS_P1;PMS_P2;Temp;Humidity;BMP_temperature;BMP_pressure;BME280_temperature;BME280_humidity;BME280_pressure;Samples;Min_cycle;Max_cycle;Signal;HPM_P1;HPM_P2
2023/06/23 00:00:27;;;;;;;0.60;0.60;;;;;;;21.22;100.00;95680.44;5071147;28;20475;-60
2023/06/23 00:02:56;;;;;;;1.07;1.07;;;;;;;21.11;100.00;95676.53;5071754;28;20468;-60
2023/06/23 00:05:25;;;;;;;0.70;0.57;;;;;;;21.29;100.00;95673.41;5070866;28;20471;-60
2023/06/23 00:07:53;;;;;;;0.90;0.80;;;;;;;21.37;100.00;95669.06;5070604;28;20506;-60
2023/06/23 00:10:23;;;;;;;2.30;0.50;;;;;;;21.39;100.00;95675.72;5057348;28;20481;-61
2023/06/23 00:12:52;;;;;;;0.90;0.50;;;;;;;21.18;100.00;95653.34;5071312;28;20441;-60
2023/06/23 00:15:22;;;;;;;1.70;1.50;;;;;;;21.19;100.00;95676.50;5070274;28;20519;-60
2023/06/23 00:17:50;;;;;;;0.80;0.77;;;;;;;21.03;100.00;95672.75;5071264;28;20450;-61
2023/06/23 00:20:19;;;;;;;0.50;0.40;;;;;;;21.15;100.00;95674.78;5071070;28;20477;-60
2023/06/23 00:22:47;;;;;;;1.70;0.60;;;;;;;20.59;100.00;95678.69;5069786;28;20442;-60
2023/06/23 00:25:15;;;;;;;1.10;1.03;;;;;;;20.66;100.00;95676.28;5070843;28;21145;-61
2023/06/23 00:27:45;;;;;;;0.50;0.40;;;;;;;20.96;100.00;95667.09;5070889;28;20475;-61
2023/06/23 00:30:15;;;;;;;1.00;0.90;;;;;;;21.13;100.00;95672.41;5071163;28;20493;-62
2023/06/23 00:32:44;;;;;;;0.60;0.43;;;;;;;20.98;100.00;95670.22;5070274;28;20438;-61
2023/06/23 00:35:14;;;;;;;0.60;0.60;;;;;;;20.62;100.00;95672.63;5071371;28;20442;-62
2023/06/23 00:37:43;;;;;;;0.70;0.67;;;;;;;20.22;100.00;95675.59;5070694;28;20437;-62
2023/06/23 00:40:12;;;;;;;0.77;0.77;;;;;;;20.11;100.00;95682.44;5071134;28;20466;-62
2023/06/23 00:42:48;;;;;;;0.80;0.53;;;;;;;20.32;100.00;95679.09;5070858;28;20449;-62
2023/06/23 00:45:16;;;;;;;0.80;0.80;;;;;;;20.38;100.00;95684.00;5071061;28;20445;-62
2023/06/23 00:47:45;;;;;;;0.70;0.70;;;;;;;20.19;100.00;95684.31;5070879;28;20448;-62
2023/06/23 00:50:16;;;;;;;1.80;1.70;;;;;;;20.11;100.00;95682.44;5071284;28;20526;-62
2023/06/23 00:52:50;;;;;;;0.70;0.50;;;;;;;20.50;100.00;95680.59;5070844;28;20434;-62
2023/06/23 00:55:20;;;;;;;2.77;0.80;;;;;;;20.47;100.00;95667.78;5070775;28;20544;-62
2023/06/23 00:57:51;;;;;;;0.90;0.63;;;;;;;20.52;100.00;95689.16;5070757;28;20441;-63
2023/06/23 01:00:21;;;;;;;0.70;0.40;;;;;;;20.60;100.00;95689.13;5070870;28;20542;-62
2023/06/23 01:02:53;;;;;;;0.70;0.50;;;;;;;20.71;100.00;95692.25;5070433;28;20444;-63
2023/06/23 01:05:24;;;;;;;0.80;0.80;;;;;;;20.83;100.00;95681.56;5070551;28;20459;-63
2023/06/23 01:08:03;;;;;;;0.63;0.60;;;;;;;20.88;100.00;95686.78;5070859;28;20437;-63
2023/06/23 01:10:38;;;;;;;0.50;0.40;;;;;;;20.93;100.00;95678.50;5070579;28;20476;-63
2023/06/23 01:13:16;;;;;;;0.87;0.63;;;;;;;20.61;100.00;95684.53;5070521;28;20433;-63
2023/06/23 01:15:51;;;;;;;0.60;0.40;;;;;;;20.01;100.00;95677.38;5056647;28;20437;-62
2023/06/23 01:18:29;;;;;;;0.60;0.60;;;;;;;20.19;100.00;95672.75;5070318;28;20499;-63
2023/06/23 01:21:02;;;;;;;1.27;1.17;;;;;;;20.39;100.00;95669.41;5070634;28;20502;-63
2023/06/23 01:24:07;;;;;;;0.80;0.70;;;;;;;20.48;100.00;95674.75;5070918;28;20506;-63
2023/06/23 01:26:50;;;;;;;1.17;0.63;;;;;;;20.60;100.00;95669.47;5027842;28;20447;-63
2023/06/23 01:29:25;;;;;;;0.90;0.90;;;;;;;20.70;100.00;95663.72;5067402;28;20449;-63
2023/06/23 01:32:01;;;;;;;1.73;1.40;;;;;;;20.72;100.00;95667.69;5046649;28;20863;-63
2023/06/23 01:34:43;;;;;;;0.70;0.50;;;;;;;20.59;100.00;95662.53;5072925;28;20528;-63
2023/06/23 01:37:18;;;;;;;0.50;0.40;;;;;;;20.45;100.00;95659.25;5074270;28;20437;-63
2023/06/23 01:39:52;;;;;;;1.33;1.33;;;;;;;20.46;100.00;95658.16;5073738;28;20948;-63
2023/06/23 01:42:25;;;;;;;1.10;1.00;;;;;;;20.06;100.00;95663.75;5074214;28;20480;-63
2023/06/23 01:44:59;;;;;;;1.10;1.10;;;;;;;19.80;100.00;95668.41;5073916;28;20847;-63
2023/06/23 01:47:32;;;;;;;0.50;0.40;;;;;;;20.00;100.00;95677.72;5073621;28;20507;-63
2023/06/23 01:50:03;;;;;;;0.67;0.67;;;;;;;19.69;100.00;95632.19;5074468;28;20540;-63
2023/06/23 01:52:34;;;;;;;2.60;0.50;;;;;;;19.86;100.00;95648.31;5073632;28;20442;-63
2023/06/23 01:55:05;;;;;;;1.67;0.70;;;;;;;20.17;100.00;95669.59;5073766;28;20437;-63
2023/06/23 01:57:37;;;;;;;0.50;0.37;;;;;;;20.44;100.00;95666.53;5073829;28;20446;-64
2023/06/23 02:00:11;;;;;;;0.70;0.63;;;;;;;20.57;100.00;95659.34;5073901;28;20506;-63
2023/06/23 02:02:40;;;;;;;0.40;0.30;;;;;;;20.63;100.00;95658.84;5048912;28;20477;-63
2023/06/23 02:05:11;;;;;;;0.80;0.70;;;;;;;20.64;100.00;95651.56;5074003;28;20488;-64
2023/06/23 02:07:41;;;;;;;0.50;0.37;;;;;;;20.62;100.00;95657.25;5073928;28;20780;-64
2023/06/23 02:10:11;;;;;;;1.50;1.07;;;;;;;20.60;100.00;95656.81;5072832;28;20534;-63
2023/06/23 02:12:42;;;;;;;0.70;0.70;;;;;;;20.62;100.00;95661.84;5073653;28;20507;-64
2023/06/23 02:15:15;;;;;;;0.60;0.60;;;;;;;20.62;100.00;95659.97;5072805;28;20452;-63
2023/06/23 02:17:45;;;;;;;0.60;0.40;;;;;;;20.41;100.00;95656.44;5072960;28;20433;-64
2023/06/23 02:20:16;;;;;;;0.60;0.60;;;;;;;20.41;100.00;95659.13;5073821;28;20437;-64
2023/06/23 02:22:47;;;;;;;0.73;0.57;;;;;;;20.43;100.00;95646.13;5073427;28;20473;-64
2023/06/23 02:25:17;;;;;;;0.80;0.53;;;;;;;20.54;100.00;95670.78;5073381;28;20472;-64
2023/06/23 02:27:46;;;;;;;0.80;0.60;;;;;;;20.17;100.00;95661.53;5073487;28;20437;-63
2023/06/23 02:30:18;;;;;;;1.77;1.67;;;;;;;19.70;100.00;95662.56;5073585;28;20827;-64
2023/06/23 02:32:47;;;;;;;1.00;0.90;;;;;;;19.91;100.00;95669.66;5072783;28;20473;-64
2023/06/23 02:35:16;;;;;;;0.93;0.70;;;;;;;20.16;100.00;95659.97;5073297;28;20476;-64
2023/06/23 02:37:50;;;;;;;0.50;0.40;;;;;;;20.24;100.00;95667.22;5072684;28;20429;-64
2023/06/23 02:40:20;;;;;;;0.63;0.50;;;;;;;20.24;100.00;95668.03;5073393;28;20464;-64
2023/06/23 02:43:00;;;;;;;0.70;0.70;;;;;;;20.04;100.00;95668.69;5072572;28;20586;-65
2023/06/23 02:45:36;;;;;;;0.60;0.40;;;;;;;19.88;100.00;95674.91;5072098;28;21026;-64
2023/06/23 02:48:08;;;;;;;0.50;0.40;;;;;;;19.92;100.00;95665.88;5072680;28;20445;-64
2023/06/23 02:50:39;;;;;;;0.90;0.80;;;;;;;19.96;100.00;95658.72;5073616;28;20915;-64
2023/06/23 02:53:10;;;;;;;0.70;0.57;;;;;;;19.98;100.00;95674.56;5072917;28;20437;-64
2023/06/23 02:55:41;;;;;;;1.03;1.03;;;;;;;19.24;100.00;95676.63;5073056;28;20849;-64
2023/06/23 02:58:12;;;;;;;1.37;1.07;;;;;;;19.39;100.00;95676.19;5072542;28;20517;-65
2023/06/23 03:00:43;;;;;;;1.57;1.47;;;;;;;19.58;100.00;95677.44;5072370;28;20929;-65
2023/06/23 03:03:15;;;;;;;0.80;0.60;;;;;;;19.91;100.00;95680.41;5072672;28;21005;-64
2023/06/23 03:05:44;;;;;;;1.07;0.90;;;;;;;20.09;100.00;95681.97;5072803;28;20439;-64
2023/06/23 03:08:12;;;;;;;0.60;0.47;;;;;;;20.25;100.00;95679.59;5072672;28;20438;-64
2023/06/23 03:10:40;;;;;;;0.70;0.63;;;;;;;19.92;100.00;95684.69;5072429;28;20996;-65
2023/06/23 03:13:09;;;;;;;0.50;0.50;;;;;;;19.45;100.00;95689.16;5072090;28;20433;-64
2023/06/23 03:15:37;;;;;;;1.53;1.17;;;;;;;19.09;100.00;95690.50;5072329;28;20433;-64
2023/06/23 03:18:14;;;;;;;1.60;1.50;;;;;;;18.75;100.00;95683.94;5072193;28;20788;-64
2023/06/23 03:20:48;;;;;;;1.47;1.37;;;;;;;19.05;100.00;95689.56;5072160;28;20479;-64
2023/06/23 03:23:18;;;;;;;1.03;0.87;;;;;;;18.93;100.00;95671.34;5071830;28;20634;-65
2023/06/23 03:25:47;;;;;;;1.07;0.87;;;;;;;18.67;100.00;95609.50;5072241;28;20878;-65
2023/06/23 03:28:21;;;;;;;0.70;0.70;;;;;;;19.43;100.00;95685.22;5072011;28;20474;-65
2023/06/23 03:30:54;;;;;;;1.07;0.93;;;;;;;19.49;100.00;95678.56;5071994;28;20981;-65
2023/06/23 03:33:29;;;;;;;0.87;0.60;;;;;;;19.84;100.00;95677.44;5046281;28;20452;-64
2023/06/23 03:36:02;;;;;;;0.63;0.60;;;;;;;20.10;100.00;95686.25;5071852;28;20507;-64
2023/06/23 03:38:35;;;;;;;0.63;0.63;;;;;;;20.14;100.00;95694.47;5072294;28;20796;-65
2023/06/23 03:41:08;;;;;;;1.30;0.83;;;;;;;20.01;100.00;95684.69;5070795;28;20438;-63
2023/06/23 03:43:40;;;;;;;0.90;0.80;;;;;;;19.63;100.00;95695.34;5071677;28;20481;-64
2023/06/23 03:46:14;;;;;;;1.90;0.60;;;;;;;19.35;100.00;95689.44;5057954;28;20479;-64
2023/06/23 03:48:46;;;;;;;1.00;0.90;;;;;;;19.69;100.00;95687.88;5071646;28;20448;-63
2023/06/23 03:51:17;;;;;;;0.50;0.47;;;;;;;19.53;100.00;95691.03;5071500;28;20864;-63
2023/06/23 03:53:49;;;;;;;1.37;1.30;;;;;;;19.38;100.00;95690.75;5071355;28;20440;-66
2023/06/23 03:56:19;;;;;;;0.93;0.60;;;;;;;19.92;100.00;95697.34;5071804;28;20467;-67
2023/06/23 03:58:50;;;;;;;7.43;0.97;;;;;;;20.11;100.00;95687.81;5071548;28;20455;-68
2023/06/23 04:01:22;;;;;;;0.53;0.50;;;;;;;20.36;100.00;95697.00;5071340;28;20429;-66
2023/06/23 04:03:55;;;;;;;6.23;0.80;;;;;;;20.59;100.00;95694.84;5068841;28;20517;-66
2023/06/23 04:06:26;;;;;;;0.70;0.70;;;;;;;20.69;100.00;95694.50;5063418;28;21026;-64
2023/06/23 04:08:56;;;;;;;1.43;0.63;;;;;;;20.51;100.00;95696.47;5057835;28;20464;-64
2023/06/23 04:11:27;;;;;;;1.27;1.03;;;;;;;20.63;100.00;95693.88;5070886;28;20550;-64
2023/06/23 04:13:57;;;;;;;0.77;0.77;;;;;;;20.60;100.00;95691.81;5037592;28;20443;-64
2023/06/23 04:16:27;;;;;;;1.03;0.53;;;;;;;20.71;100.00;95693.06;5065407;28;20441;-63
2023/06/23 04:19:00;;;;;;;1.77;1.23;;;;;;;20.91;100.00;95691.53;5071380;28;20476;-65
2023/06/23 04:21:31;;;;;;;1.07;1.07;;;;;;;20.72;100.00;95694.63;5070974;28;20459;-63
2023/06/23 04:24:04;;;;;;;1.13;1.13;;;;;;;20.44;100.00;95693.44;5071186;28;20478;-62
2023/06/23 04:26:34;;;;;;;0.93;0.60;;;;;;;20.76;100.00;95684.00;5071004;28;20510;-63
2023/06/23 04:29:06;;;;;;;0.60;0.40;;;;;;;20.80;100.00;95682.22;5071018;28;20453;-64
2023/06/23 04:31:36;;;;;;;0.60;0.60;;;;;;;21.01;100.00;95685.75;5070559;28;20437;-62
2023/06/23 04:34:06;;;;;;;1.07;0.97;;;;;;;21.12;100.00;95689.69;5057826;28;20443;-63
2023/06/23 04:36:41;;;;;;;0.67;0.50;;;;;;;20.07;100.00;95524.63;5070472;28;20504;-62
2023/06/23 04:39:27;;;;;;;0.50;0.50;;;;;;;20.95;100.00;95681.66;5070803;28;20473;-62
2023/06/23 04:42:00;;;;;;;2.57;1.07;;;;;;;21.13;100.00;95698.56;5070486;28;20794;-63
2023/06/23 04:44:33;;;;;;;0.50;0.50;;;;;;;21.17;100.00;95673.34;5070360;28;20437;-63
2023/06/23 04:47:04;;;;;;;1.50;1.40;;;;;;;21.29;100.00;95686.09;5070619;28;20437;-63
2023/06/23 04:49:34;;;;;;;3.13;1.77;;;;;;;20.84;100.00;95692.03;5070365;28;20491;-63
2023/06/23 04:52:06;;;;;;;3.27;0.90;;;;;;;20.43;100.00;95651.50;5070447;28;20445;-54
2023/06/23 04:54:41;;;;;;;0.70;0.70;;;;;;;21.21;100.00;95698.50;5070987;28;20441;-55
2023/06/23 04:57:15;;;;;;;2.03;1.63;;;;;;;20.92;100.00;95690.41;5070185;28;20433;-54
2023/06/23 04:59:51;;;;;;;1.57;1.47;;;;;;;20.21;100.00;95702.84;5070794;28;20472;-52
2023/06/23 05:02:21;;;;;;;2.87;1.53;;;;;;;20.28;100.00;95678.94;5070349;28;20491;-54
2023/06/23 05:04:53;;;;;;;0.80;0.70;;;;;;;20.53;100.00;95696.13;5070755;28;20433;-52
2023/06/23 05:07:25;;;;;;;1.93;1.80;;;;;;;21.11;100.00;95690.00;5069883;28;20446;-51
2023/06/23 05:09:55;;;;;;;1.63;1.53;;;;;;;21.45;100.00;95687.88;5072938;28;20519;-51
2023/06/23 05:12:24;;;;;;;1.00;1.00;;;;;;;21.69;100.00;95695.31;5074568;28;20467;-52
2023/06/23 05:14:54;;;;;;;1.20;1.20;;;;;;;21.97;100.00;95692.88;5074437;28;20511;-51
2023/06/23 05:17:23;;;;;;;2.47;2.37;;;;;;;21.88;100.00;95694.88;5074149;28;20511;-51
2023/06/23 05:19:54;;;;;;;0.90;0.60;;;;;;;21.94;100.00;95696.22;5074411;28;20456;-55
2023/06/23 05:22:26;;;;;;;1.07;0.80;;;;;;;22.52;100.00;95695.94;5074044;28;20448;-55
2023/06/23 05:24:59;;;;;;;1.17;0.50;;;;;;;22.82;100.00;95695.78;5073524;28;20949;-56
2023/06/23 05:27:29;;;;;;;1.57;1.03;;;;;;;22.32;100.00;95696.78;5074346;28;20506;-56
2023/06/23 05:29:59;;;;;;;5.30;2.40;;;;;;;21.68;100.00;95699.09;5074236;28;20441;-56
2023/06/23 05:32:31;;;;;;;1.33;0.87;;;;;;;22.23;100.00;95666.41;5073821;28;20502;-56
2023/06/23 05:35:04;;;;;;;2.33;1.37;;;;;;;22.98;100.00;95697.47;5074386;28;20448;-56
2023/06/23 05:37:35;;;;;;;0.50;0.50;;;;;;;23.32;100.00;95690.78;5073774;28;20437;-56
2023/06/23 05:40:06;;;;;;;2.83;0.80;;;;;;;23.28;100.00;95690.69;5074130;28;20441;-56
2023/06/23 05:42:34;;;;;;;0.80;0.80;;;;;;;23.40;100.00;95698.03;5074078;28;20477;-56
2023/06/23 05:45:03;;;;;;;1.07;1.03;;;;;;;23.40;100.00;95698.03;5074430;28;20433;-56
2023/06/23 05:47:40;;;;;;;7.10;0.60;;;;;;;23.55;100.00;95694.63;5073867;28;20444;-56
2023/06/23 05:50:19;;;;;;;0.63;0.63;;;;;;;23.78;100.00;95697.59;5073764;28;20459;-57
2023/06/23 05:52:56;;;;;;;1.33;1.23;;;;;;;23.26;100.00;95690.25;5073678;28;20449;-57
2023/06/23 05:55:28;;;;;;;3.63;0.90;;;;;;;23.82;100.00;95695.75;5073753;28;20819;-57
2023/06/23 05:58:00;;;;;;;6.00;2.40;;;;;;;23.23;100.00;95695.53;5073674;28;20449;-55
2023/06/23 06:00:34;;;;;;;2.33;2.13;;;;;;;22.97;100.00;95698.56;5073549;28;20514;-54
2023/06/23 06:03:06;;;;;;;1.63;1.53;;;;;;;23.72;100.00;95698.97;5073596;28;21049;-57
2023/06/23 06:05:39;;;;;;;1.37;1.27;;;;;;;24.39;100.00;95703.53;5073531;28;20448;-56
2023/06/23 06:08:10;;;;;;;0.83;0.80;;;;;;;24.82;96.04;95686.47;5073234;28;20954;-56
2023/06/23 06:10:39;;;;;;;4.73;1.73;;;;;;;24.71;96.08;95691.59;5073102;28;20474;-56
2023/06/23 06:13:09;;;;;;;1.20;1.10;;;;;;;24.35;96.88;95689.13;5072239;28;20445;-55
2023/06/23 06:15:39;;;;;;;3.47;2.00;;;;;;;24.25;96.11;95695.84;5066299;28;20446;-55
2023/06/23 06:18:11;;;;;;;1.80;1.70;;;;;;;24.74;94.69;95688.19;5067933;28;20445;-55
2023/06/23 06:20:46;;;;;;;1.20;1.10;;;;;;;25.04;92.48;95689.34;5072546;28;20526;-56
2023/06/23 06:23:17;;;;;;;3.77;1.37;;;;;;;25.47;87.89;95688.41;5072301;28;21002;-55
2023/06/23 06:25:54;;;;;;;1.30;1.30;;;;;;;25.07;86.53;95696.00;5073385;28;20515;-55
2023/06/23 06:28:25;;;;;;;4.60;4.20;;;;;;;25.06;88.54;95692.50;5072885;28;20449;-55
2023/06/23 06:30:55;;;;;;;2.30;1.90;;;;;;;24.98;88.06;95682.59;5073236;28;20467;-55
2023/06/23 06:33:25;;;;;;;1.57;1.47;;;;;;;25.62;86.05;95684.84;5046270;28;20495;-56
2023/06/23 06:36:00;;;;;;;1.33;1.20;;;;;;;25.71;85.75;95679.19;5072157;28;20490;-56
2023/06/23 06:38:30;;;;;;;1.63;1.03;;;;;;;26.26;83.22;95673.34;5072943;28;20441;-55
2023/06/23 06:41:00;;;;;;;1.20;1.10;;;;;;;26.74;77.98;95665.66;5072908;28;20517;-55
2023/06/23 06:43:28;;;;;;;1.40;1.30;;;;;;;26.57;76.27;95666.09;5072940;28;20466;-61
2023/06/23 06:45:57;;;;;;;1.33;0.50;;;;;;;26.94;78.41;95656.28;5072898;28;20462;-61
2023/06/23 06:48:27;;;;;;;0.67;0.67;;;;;;;26.77;79.62;95659.47;5072924;28;20453;-60
2023/06/23 06:50:58;;;;;;;1.43;1.33;;;;;;;26.64;80.27;95667.00;5072160;28;20917;-60
2023/06/23 06:53:28;;;;;;;2.03;1.93;;;;;;;26.57;82.01;95660.66;5072647;28;20945;-61
2023/06/23 06:55:58;;;;;;;1.97;1.53;;;;;;;26.32;79.91;95652.88;5072802;28;20856;-61
2023/06/23 06:58:27;;;;;;;2.30;1.80;;;;;;;26.88;80.34;95647.66;5072575;28;20441;-62
2023/06/23 07:00:57;;;;;;;1.03;1.03;;;;;;;26.98;77.34;95649.75;5072641;28;20803;-62
2023/06/23 07:03:26;;;;;;;1.43;1.33;;;;;;;27.04;80.04;95642.81;5071621;28;20475;-60
2023/06/23 07:05:54;;;;;;;0.80;0.80;;;;;;;27.58;75.45;95641.66;5047423;28;20437;-62
2023/06/23 07:08:24;;;;;;;3.03;0.73;;;;;;;28.21;74.87;95647.09;5072183;28;20549;-64
2023/06/23 07:10:53;;;;;;;1.13;1.03;;;;;;;28.10;75.61;95635.31;5072476;28;20593;-64
2023/06/23 07:13:21;;;;;;;1.77;1.13;;;;;;;28.22;74.05;95640.50;5071890;28;20456;-63
2023/06/23 07:15:49;;;;;;;0.73;0.73;;;;;;;28.93;73.04;95636.47;5071246;28;20445;-63
2023/06/23 07:18:18;;;;;;;0.70;0.70;;;;;;;28.57;72.28;95640.81;5072483;28;20441;-63
2023/06/23 07:20:46;;;;;;;3.43;1.43;;;;;;;28.17;72.53;95638.09;5073226;28;20446;-63
2023/06/23 07:23:15;;;;;;;1.13;0.90;;;;;;;28.26;75.24;95636.63;5072216;28;20445;-62
2023/06/23 07:25:44;;;;;;;0.90;0.70;;;;;;;28.73;71.12;95629.69;5072310;28;20480;-64
2023/06/23 07:28:13;;;;;;;2.40;2.30;;;;;;;29.38;70.10;95633.28;5071347;28;20441;-65
2023/06/23 07:30:41;;;;;;;0.73;0.73;;;;;;;29.28;68.96;95638.69;5071912;28;20922;-65
2023/06/23 07:33:09;;;;;;;1.50;0.90;;;;;;;29.34;68.05;95634.44;5071424;28;20429;-65
2023/06/23 07:35:38;;;;;;;1.90;1.57;;;;;;;29.41;67.32;95639.94;5071643;28;20444;-64
2023/06/23 07:38:06;;;;;;;0.73;0.70;;;;;;;29.11;67.18;95636.59;5071597;28;20508;-63
2023/06/23 07:40:34;;;;;;;1.63;1.53;;;;;;;29.33;66.50;95633.66;5071534;28;20448;-64
2023/06/23 07:43:04;;;;;;;1.40;1.30;;;;;;;28.76;64.60;95637.91;5071338;28;20445;-63
2023/06/23 07:45:33;;;;;;;1.60;1.50;;;;;;;29.09;64.92;95631.53;5071683;28;20571;-62
2023/06/23 07:48:01;;;;;;;1.30;0.80;;;;;;;29.59;64.88;95629.88;5044265;28;20445;-63
2023/06/23 07:50:29;;;;;;;1.50;1.40;;;;;;;29.93;62.66;95633.94;5071390;28;20441;-64
2023/06/23 07:52:58;;;;;;;0.70;0.70;;;;;;;30.26;61.17;95624.66;5071300;28;20973;-62
2023/06/23 07:55:26;;;;;;;1.60;1.03;;;;;;;30.68;60.64;95623.97;5070884;28;20964;-62
2023/06/23 07:57:55;;;;;;;1.27;1.17;;;;;;;30.42;58.28;95618.88;5071211;28;20433;-63
2023/06/23 08:00:24;;;;;;;0.63;0.63;;;;;;;30.80;58.08;95618.91;5071369;28;20445;-62
2023/06/23 08:02:53;;;;;;;0.93;0.93;;;;;;;30.46;59.91;95617.69;5070905;28;20453;-61
2023/06/23 08:05:21;;;;;;;4.37;1.63;;;;;;;30.75;58.77;95618.50;5070902;28;20558;-62
2023/06/23 08:07:50;;;;;;;2.20;1.60;;;;;;;30.64;57.56;95615.75;5071490;28;20436;-62
2023/06/23 08:10:19;;;;;;;1.60;1.50;;;;;;;29.86;57.05;95617.53;5070421;28;20987;-63
2023/06/23 08:12:47;;;;;;;0.80;0.60;;;;;;;30.24;56.05;95609.81;5070772;28;20448;-62
2023/06/23 08:15:15;;;;;;;0.63;0.63;;;;;;;31.25;55.22;95611.03;5070736;28;20436;-62
2023/06/23 08:17:45;;;;;;;8.43;1.40;;;;;;;31.08;53.77;95609.91;5070993;28;20449;-62
2023/06/23 08:20:18;;;;;;;0.83;0.80;;;;;;;31.13;54.75;95601.28;5070738;28;20445;-62
2023/06/23 08:22:46;;;;;;;0.60;0.60;;;;;;;31.40;54.89;95596.91;5071115;28;20459;-62
2023/06/23 08:25:14;;;;;;;2.00;0.87;;;;;;;31.70;55.41;95606.66;5070933;28;21001;-62
2023/06/23 08:27:43;;;;;;;3.30;1.90;;;;;;;31.36;54.61;95598.09;5070546;28;20928;-63
2023/06/23 08:30:12;;;;;;;2.40;1.17;;;;;;;31.08;53.88;95609.91;5070955;28;20472;-54
2023/06/23 08:32:40;;;;;;;1.20;1.10;;;;;;;31.17;54.40;95604.78;5070609;28;20498;-54
2023/06/23 08:35:10;;;;;;;1.00;0.80;;;;;;;32.12;54.36;95600.97;5070793;28;20490;-54
2023/06/23 08:37:40;;;;;;;2.17;2.07;;;;;;;31.66;54.38;95597.63;5070959;28;21086;-54
2023/06/23 08:40:09;;;;;;;1.00;0.90;;;;;;;32.34;52.29;95594.16;5070636;28;20437;-55
2023/06/23 08:42:38;;;;;;;2.40;1.10;;;;;;;32.10;53.06;95595.13;5069793;28;20956;-55
2023/06/23 08:45:09;;;;;;;1.00;0.97;;;;;;;33.07;52.98;95589.31;5070710;28;20853;-55
2023/06/23 08:47:43;;;;;;;3.60;0.67;;;;;;;33.22;53.13;95585.22;5070857;28;20441;-56
2023/06/23 08:50:13;;;;;;;1.80;0.87;;;;;;;33.39;52.98;95579.97;5070639;28;20502;-55
2023/06/23 08:52:43;;;;;;;1.33;1.23;;;;;;;33.80;52.07;95573.19;5070222;28;20750;-55
2023/06/23 08:55:11;;;;;;;0.60;0.60;;;;;;;33.71;51.10;95572.16;5070723;28;20444;-55
2023/06/23 08:57:40;;;;;;;1.80;1.30;;;;;;;32.88;51.59;95576.13;5070465;28;20917;-55
2023/06/23 09:00:09;;;;;;;1.00;1.00;;;;;;;32.80;53.02;95574.63;5070957;28;20440;-55
2023/06/23 09:02:38;;;;;;;2.40;2.30;;;;;;;33.20;53.26;95564.84;5071134;28;20463;-56
2023/06/23 09:05:07;;;;;;;2.10;2.00;;;;;;;33.15;51.11;95559.78;5070155;28;20468;-55
2023/06/23 09:07:37;;;;;;;1.43;1.33;;;;;;;33.39;50.90;95553.25;5070156;28;20452;-56
2023/06/23 09:10:07;;;;;;;4.77;1.80;;;;;;;32.46;53.34;95555.25;5069950;28;20522;-55
2023/06/23 09:12:35;;;;;;;0.90;0.90;;;;;;;32.74;52.63;95548.78;5070425;28;20986;-56
2023/06/23 09:15:04;;;;;;;1.77;1.67;;;;;;;32.77;54.48;95553.47;5069990;28;20831;-55
2023/06/23 09:17:34;;;;;;;1.10;0.97;;;;;;;32.28;52.33;95427.66;5070175;28;20445;-55
2023/06/23 09:20:04;;;;;;;0.50;0.50;;;;;;;33.81;51.77;95555.50;5069481;28;20451;-55
2023/06/23 09:22:34;;;;;;;1.77;1.00;;;;;;;33.55;50.86;95547.97;5070240;28;20445;-56
2023/06/23 09:25:04;;;;;;;1.00;1.00;;;;;;;33.57;51.34;95544.84;5070237;28;20533;-55
2023/06/23 09:27:42;;;;;;;1.63;1.53;;;;;;;33.72;51.84;95538.75;5070650;28;20498;-55
2023/06/23 09:30:11;;;;;;;0.57;0.57;;;;;;;34.51;50.82;95539.16;5070173;28;20499;-55
2023/06/23 09:32:45;;;;;;;1.33;1.23;;;;;;;33.79;53.55;95538.66;5069879;28;20536;-55
2023/06/23 09:35:14;;;;;;;1.40;1.30;;;;;;;33.79;53.45;95529.63;5070289;28;20440;-54
2023/06/23 09:37:44;;;;;;;1.07;0.77;;;;;;;34.27;51.25;95540.34;5070059;28;20688;-55
2023/06/23 09:40:14;;;;;;;1.13;1.10;;;;;;;33.81;50.93;95539.00;5069884;28;20198;-55
2023/06/23 09:42:44;;;;;;;1.37;1.37;;;;;;;34.19;50.56;95528.69;5069297;28;20245;-54
2023/06/23 09:45:17;;;;;;;0.97;0.77;;;;;;;34.68;51.80;95526.34;5070440;28;20218;-54
2023/06/23 09:47:50;;;;;;;1.60;1.50;;;;;;;34.75;50.98;95524.25;5069760;28;20198;-55
2023/06/23 09:50:20;;;;;;;0.73;0.70;;;;;;;35.00;49.07;95515.53;5070081;28;20199;-55
2023/06/23 09:53:00;;;;;;;1.67;1.57;;;;;;;34.98;48.49;95504.94;5070376;28;20201;-54
2023/06/23 09:55:32;;;;;;;2.30;2.20;;;;;;;34.03;49.00;95470.72;5070280;28;20312;-55
2023/06/23 09:58:03;;;;;;;0.93;0.93;;;;;;;34.93;49.03;95497.16;5063031;28;20205;-55
2023/06/23 10:00:31;;;;;;;1.60;1.50;;;;;;;34.40;45.82;95478.81;5073104;28;20195;-55
2023/06/23 10:03:00;;;;;;;0.70;0.70;;;;;;;34.84;46.03;95502.44;5072710;28;20203;-55
2023/06/23 10:05:34;;;;;;;0.97;0.97;;;;;;;34.73;45.59;95503.84;5072791;28;20253;-55
2023/06/23 10:08:07;;;;;;;0.50;0.50;;;;;;;34.37;45.12;95503.63;5073082;28;20198;-55
2023/06/23 10:10:43;;;;;;;6.43;2.00;;;;;;;33.49;46.76;95496.59;5072952;28;20265;-55
2023/06/23 10:13:12;;;;;;;1.00;1.00;;;;;;;33.49;47.61;95497.41;5073304;28;20198;-55
2023/06/23 10:15:43;;;;;;;1.07;0.90;;;;;;;33.29;46.79;95496.47;5073194;28;20191;-54
2023/06/23 10:18:12;;;;;;;1.00;1.00;;;;;;;34.10;46.36;95489.13;5072750;28;20205;-55
2023/06/23 10:20:40;;;;;;;1.40;0.67;;;;;;;34.57;46.26;95487.19;5073165;28;20205;-55
2023/06/23 10:23:13;;;;;;;2.87;1.13;;;;;;;33.71;45.70;95493.19;5072839;28;20202;-54
2023/06/23 10:25:45;;;;;;;1.73;1.63;;;;;;;34.31;44.59;95486.03;5073618;28;20575;-55
2023/06/23 10:28:18;;;;;;;0.70;0.70;;;;;;;34.37;43.61;95481.59;5073052;28;20195;-61
2023/06/23 10:30:47;;;;;;;1.33;1.33;;;;;;;34.26;45.56;95475.50;5073027;28;20348;-61
2023/06/23 10:33:19;;;;;;;0.80;0.70;;;;;;;33.77;45.98;95469.56;5072888;28;20203;-61
2023/06/23 10:35:49;;;;;;;2.40;1.53;;;;;;;34.43;45.01;95463.44;5073005;28;20612;-61
2023/06/23 10:38:22;;;;;;;1.10;0.80;;;;;;;35.02;45.16;95463.53;5046977;28;20197;-61
2023/06/23 10:40:58;;;;;;;1.23;0.87;;;;;;;35.71;44.19;95465.31;5072523;28;20197;-60
2023/06/23 10:43:32;;;;;;;0.80;0.77;;;;;;;36.19;42.30;95454.34;5073082;28;20256;-60
2023/06/23 10:46:03;;;;;;;0.98;0.98;;;;;;;36.06;43.16;95459.00;5072354;28;20579;-60
2023/06/23 10:48:32;;;;;;;1.88;1.77;;;;;;;34.45;44.15;95461.03;5072624;28;20558;-61
2023/06/23 10:51:01;;;;;;;0.93;0.77;;;;;;;34.54;44.51;95447.50;5072813;28;20220;-61
2023/06/23 10:53:33;;;;;;;0.60;0.55;;;;;;;34.77;45.14;95439.22;5073125;28;20239;-61
2023/06/23 10:56:03;;;;;;;8.57;0.95;;;;;;;34.30;44.87;95443.19;5072711;28;20292;-61
2023/06/23 10:58:49;;;;;;;1.00;1.00;;;;;;;34.00;45.46;95435.03;5072438;28;20194;-60
2023/06/23 11:01:18;;;;;;;1.10;1.00;;;;;;;34.48;46.18;95430.66;5072754;28;20202;-61
2023/06/23 11:03:51;;;;;;;1.87;1.53;;;;;;;34.05;46.80;95440.06;5072566;28;20273;-61
2023/06/23 11:06:28;;;;;;;1.17;1.17;;;;;;;34.71;45.07;95432.66;5071847;28;20215;-60
2023/06/23 11:08:57;;;;;;;1.10;0.80;;;;;;;34.33;45.05;95428.63;5071996;28;20552;-57
2023/06/23 11:11:34;;;;;;;1.23;1.13;;;;;;;34.25;45.68;95429.94;5072401;28;20229;-57
2023/06/23 11:14:03;;;;;;;1.47;1.43;;;;;;;33.84;46.08;95432.91;5072611;28;20199;-56
2023/06/23 11:16:34;;;;;;;0.80;0.80;;;;;;;33.45;45.52;95394.16;5071980;28;20199;-57
2023/06/23 11:19:03;;;;;;;1.40;1.13;;;;;;;34.14;44.79;95424.59;5072253;28;20249;-56
2023/06/23 11:21:35;;;;;;;1.10;1.00;;;;;;;34.52;44.75;95422.38;5071963;28;20201;-56
2023/06/23 11:24:11;;;;;;;1.23;1.13;;;;;;;33.94;44.97;95411.94;5071922;28;20248;-56
2023/06/23 11:26:50;;;;;;;0.63;0.63;;;;;;;34.84;43.28;95414.31;5071994;28;20214;-56
2023/06/23 11:29:21;;;;;;;0.70;0.70;;;;;;;35.16;43.51;95419.22;5072126;28;20712;-57
2023/06/23 11:32:09;;;;;;;1.90;0.80;;;;;;;35.76;43.11;95412.41;5072195;28;20190;-56
2023/06/23 11:34:51;;;;;;;1.70;1.07;;;;;;;35.40;42.45;95411.59;5072051;28;20293;-56
2023/06/23 11:37:21;;;;;;;0.70;0.70;;;;;;;35.00;42.54;95397.84;5071353;28;20213;-56
2023/06/23 11:39:53;;;;;;;0.75;0.63;;;;;;;35.16;43.27;95416.47;5071758;28;20207;-56
2023/06/23 11:42:24;;;;;;;1.45;1.35;;;;;;;34.58;44.54;95406.97;5071540;28;20195;-56
2023/06/23 11:44:56;;;;;;;1.20;1.05;;;;;;;34.22;44.20;95401.28;5071818;28;20202;-56
2023/06/23 11:47:25;;;;;;;0.98;0.98;;;;;;;35.08;44.01;95343.41;5070979;28;20210;-57